createdAt,value
2017-06-16T00:00:38.647Z,5.93
2017-06-16T00:03:06.194Z,5.47
2017-06-16T00:05:33.651Z,6.13
2017-06-16T00:08:01.106Z,5.07
2017-06-16T00:10:28.566Z,5.83
2017-06-16T00:12:56.122Z,6.00
2017-06-16T00:15:23.587Z,5.60
2017-06-16T00:17:51.038Z,5.70
2017-06-16T00:20:18.554Z,5.63
2017-06-16T00:22:46.014Z,5.43
2017-06-16T00:25:13.507Z,6.90
2017-06-16T00:27:40.962Z,6.40
2017-06-16T00:30:08.438Z,6.00
2017-06-16T00:32:36.696Z,6.70
2017-06-16T00:35:04.150Z,6.10
2017-06-16T00:37:31.712Z,6.40
2017-06-16T00:39:59.272Z,7.10
2017-06-16T00:42:26.735Z,8.20
2017-06-16T00:44:55.003Z,7.00
2017-06-16T00:47:22.466Z,7.33
2017-06-16T00:49:50.006Z,7.40
2017-06-16T00:52:17.478Z,6.70
2017-06-16T00:54:45.026Z,5.77
2017-06-16T00:57:12.486Z,6.00
2017-06-16T00:59:40.043Z,7.03
2017-06-16T01:02:07.513Z,6.00
2017-06-16T01:04:34.958Z,5.83
2017-06-16T01:07:02.415Z,5.77
2017-06-16T01:09:29.971Z,6.53
2017-06-16T01:11:58.206Z,6.97
2017-06-16T01:14:25.666Z,6.83
2017-06-16T01:16:53.126Z,5.50
2017-06-16T01:19:20.594Z,6.50
2017-06-16T01:21:48.070Z,6.33
2017-06-16T01:24:15.535Z,5.67
2017-06-16T01:26:42.982Z,5.23
2017-06-16T01:29:10.543Z,4.43
2017-06-16T01:31:38.090Z,5.47
2017-06-16T01:34:05.542Z,4.97
2017-06-16T01:36:33.001Z,5.40
2017-06-16T01:39:00.458Z,4.30
2017-06-16T01:41:27.923Z,5.57
2017-06-16T01:43:55.384Z,4.30
2017-06-16T01:46:22.847Z,4.53
2017-06-16T01:48:50.302Z,4.47
2017-06-16T01:51:17.851Z,4.40
2017-06-16T01:53:45.298Z,5.10
2017-06-16T01:56:12.770Z,5.37
2017-06-16T01:58:40.222Z,4.27
2017-06-16T02:01:07.674Z,5.03
2017-06-16T02:03:35.142Z,4.50
2017-06-16T02:06:02.599Z,4.30
2017-06-16T02:08:30.058Z,4.70
2017-06-16T02:10:58.282Z,3.97
2017-06-16T02:13:25.778Z,4.30
2017-06-16T02:15:53.250Z,4.30
2017-06-16T02:18:20.702Z,3.37
2017-06-16T02:20:49.001Z,4.07
2017-06-16T02:23:17.238Z,4.30
2017-06-16T02:25:44.694Z,5.10
2017-06-16T02:28:12.126Z,3.13
2017-06-16T02:30:40.392Z,3.63
2017-06-16T02:33:07.884Z,3.40
2017-06-16T02:35:35.351Z,4.30
2017-06-16T02:38:02.890Z,3.23
2017-06-16T02:40:30.360Z,4.17
2017-06-16T02:42:57.817Z,3.43
2017-06-16T02:45:25.372Z,3.10
2017-06-16T02:47:52.825Z,3.63
2017-06-16T02:50:20.290Z,3.00
2017-06-16T02:52:47.745Z,3.00
2017-06-16T02:55:15.206Z,2.90
2017-06-16T02:57:42.655Z,3.03
2017-06-16T03:00:10.118Z,3.37
2017-06-16T03:02:37.666Z,2.83
2017-06-16T03:05:05.221Z,3.47
2017-06-16T03:07:32.782Z,3.67
2017-06-16T03:10:00.243Z,2.87
2017-06-16T03:12:27.793Z,2.97
2017-06-16T03:14:55.354Z,2.70
2017-06-16T03:17:22.823Z,2.83
2017-06-16T03:19:50.278Z,2.50
2017-06-16T03:22:17.746Z,3.43
2017-06-16T03:24:51.666Z,3.03
2017-06-16T03:27:19.191Z,2.87
2017-06-16T03:29:46.643Z,3.10
2017-06-16T03:32:14.094Z,2.90
2017-06-16T03:34:41.654Z,2.57
2017-06-16T03:37:09.137Z,2.90
2017-06-16T03:39:37.358Z,3.77
2017-06-16T03:42:04.815Z,2.57
2017-06-16T03:44:32.306Z,2.60
2017-06-16T03:46:59.763Z,2.27
2017-06-16T03:49:27.317Z,2.50
2017-06-16T03:51:54.774Z,2.20
2017-06-16T03:54:22.401Z,2.57
2017-06-16T03:56:49.886Z,3.60
2017-06-16T03:59:17.345Z,2.80
2017-06-16T04:01:44.806Z,2.80
2017-06-16T04:04:12.279Z,2.63
2017-06-16T04:06:39.763Z,2.80
2017-06-16T04:09:07.219Z,2.67
2017-06-16T04:11:34.671Z,2.07
2017-06-16T04:14:02.124Z,2.80
2017-06-16T04:16:29.582Z,2.20
2017-06-16T04:18:57.043Z,2.10
2017-06-16T04:21:24.514Z,2.63
2017-06-16T04:23:52.014Z,2.40
2017-06-16T04:26:19.478Z,2.53
2017-06-16T04:28:46.925Z,2.40
2017-06-16T07:24:38.792Z,1.50
2017-06-16T07:27:06.260Z,1.80
2017-06-16T07:29:33.766Z,1.70
2017-06-16T07:32:01.324Z,1.90
2017-06-16T07:34:28.782Z,1.70
2017-06-16T07:36:56.267Z,1.80
2017-06-16T07:39:23.717Z,1.60
2017-06-16T07:41:51.955Z,1.73
2017-06-16T07:44:19.518Z,2.93
2017-06-16T07:46:46.978Z,1.50
2017-06-16T07:49:14.438Z,1.67
2017-06-16T07:51:41.994Z,1.83
2017-06-16T07:54:09.463Z,2.07
2017-06-16T07:56:37.694Z,2.97
2017-06-16T07:59:05.165Z,2.03
2017-06-16T08:01:32.611Z,1.90
2017-06-16T08:04:00.058Z,1.57
2017-06-16T08:06:27.514Z,2.40
2017-06-16T08:08:54.970Z,2.10
2017-06-16T08:11:22.430Z,2.00
2017-06-16T08:13:49.888Z,1.90
2017-06-16T08:16:17.346Z,2.00
2017-06-16T08:18:44.798Z,2.20
2017-06-16T08:21:12.284Z,1.77
2017-06-16T08:23:39.743Z,2.00
2017-06-16T08:26:07.203Z,2.13
2017-06-16T08:28:34.659Z,1.87
2017-06-16T08:31:02.131Z,2.23
2017-06-16T08:33:30.349Z,3.60
2017-06-16T08:35:57.849Z,3.67
2017-06-16T08:38:25.312Z,2.70
2017-06-16T08:40:52.863Z,2.50
2017-06-16T08:43:20.426Z,2.20
2017-06-16T08:45:47.882Z,2.23
2017-06-16T08:48:15.339Z,1.93
2017-06-16T08:50:42.790Z,2.27
2017-06-16T08:53:10.341Z,2.30
2017-06-16T08:55:37.786Z,2.37
2017-06-16T08:58:05.243Z,2.60
2017-06-16T09:00:32.706Z,2.30
2017-06-16T09:03:00.275Z,2.47
2017-06-16T09:05:27.726Z,2.50
2017-06-16T09:07:55.284Z,1.70
2017-06-16T09:10:22.738Z,3.20
2017-06-16T09:12:50.191Z,2.30
2017-06-16T09:15:17.750Z,3.20
2017-06-16T09:17:45.311Z,2.60
2017-06-16T09:20:12.875Z,2.20
2017-06-16T09:22:40.331Z,2.40
2017-06-16T09:25:07.798Z,2.13
2017-06-16T09:27:35.346Z,2.53
2017-06-16T09:30:02.806Z,2.90
2017-06-16T09:32:30.358Z,3.03
2017-06-16T09:34:57.818Z,2.10
2017-06-16T09:37:25.374Z,2.17
2017-06-16T09:39:52.934Z,2.20
2017-06-16T09:42:20.390Z,2.57
2017-06-16T09:44:47.851Z,3.03
2017-06-16T09:47:15.303Z,3.40
2017-06-16T09:49:42.771Z,2.47
2017-06-16T09:52:10.219Z,2.70
2017-06-16T09:54:37.671Z,2.43
2017-06-16T09:57:05.130Z,2.43
2017-06-16T09:59:32.586Z,2.80
2017-06-16T10:02:00.043Z,3.07
2017-06-16T10:04:27.495Z,2.30
2017-06-16T10:06:54.953Z,2.17
2017-06-16T10:09:22.418Z,2.27
2017-06-16T10:11:49.878Z,2.77
2017-06-16T10:14:18.103Z,2.10
2017-06-16T10:16:45.569Z,2.43
2017-06-16T10:19:13.054Z,3.10
2017-06-16T10:21:40.522Z,2.10
2017-06-16T10:24:08.755Z,2.80
2017-06-16T10:26:36.335Z,2.40
2017-06-16T10:29:03.791Z,2.30
2017-06-16T10:31:31.251Z,2.63
2017-06-16T10:33:58.718Z,2.40
2017-06-16T10:36:26.267Z,2.37
2017-06-16T10:38:53.726Z,1.87
2017-06-16T10:41:21.182Z,2.00
2017-06-16T10:43:48.642Z,1.50
2017-06-16T10:46:16.195Z,2.27
2017-06-16T10:48:43.654Z,2.07
2017-06-16T10:51:11.110Z,2.00
2017-06-16T10:53:38.670Z,1.90
2017-06-16T10:56:06.133Z,2.43
2017-06-16T10:58:33.594Z,1.80
2017-06-16T11:01:01.854Z,1.77
2017-06-16T11:03:29.337Z,2.10
2017-06-16T11:05:57.549Z,2.40
2017-06-16T11:08:25.010Z,1.60
2017-06-16T11:10:52.468Z,2.33
2017-06-16T11:13:19.920Z,2.00
2017-06-16T11:15:47.387Z,2.10
2017-06-16T11:18:14.841Z,2.30
2017-06-16T11:20:42.307Z,2.43
2017-06-16T11:23:09.780Z,1.60
2017-06-16T11:25:37.250Z,1.80
2017-06-16T11:28:04.694Z,2.40
2017-06-16T11:30:32.163Z,1.83
2017-06-16T11:33:00.386Z,1.47
2017-06-16T11:35:27.886Z,2.27
2017-06-16T11:37:55.334Z,2.70
2017-06-16T11:40:22.887Z,2.10
2017-06-16T11:42:50.334Z,2.27
2017-06-16T11:45:17.792Z,2.00
2017-06-16T11:47:45.251Z,1.87
2017-06-16T11:50:12.703Z,1.80
2017-06-16T11:52:40.176Z,1.73
2017-06-16T11:55:07.635Z,2.00
2017-06-16T11:57:35.096Z,1.90
2017-06-16T12:00:02.542Z,2.03
2017-06-16T12:02:30.011Z,2.23
2017-06-16T12:04:57.550Z,2.80
2017-06-16T12:07:25.020Z,1.80
2017-06-16T12:09:52.574Z,2.13
2017-06-16T12:12:20.039Z,1.80
2017-06-16T12:14:47.587Z,2.00
2017-06-16T12:17:15.043Z,1.60
2017-06-16T12:19:42.600Z,1.80
2017-06-16T12:22:10.050Z,1.50
2017-06-16T12:24:37.511Z,2.00
2017-06-16T12:27:04.963Z,1.60
2017-06-16T12:29:32.426Z,1.90
2017-06-16T12:31:59.886Z,1.90
2017-06-16T12:34:27.344Z,2.20
2017-06-16T12:36:54.798Z,1.90
2017-06-16T12:39:22.355Z,2.37
2017-06-16T12:41:49.821Z,1.47
2017-06-16T12:44:17.266Z,2.10
2017-06-16T12:46:44.726Z,1.83
2017-06-16T12:49:12.203Z,2.47
2017-06-16T12:51:40.430Z,1.70
2017-06-16T12:54:07.894Z,2.10
2017-06-16T12:56:35.351Z,1.77
2017-06-16T12:59:02.807Z,1.80
2017-06-16T13:01:30.374Z,1.60
2017-06-16T13:03:57.938Z,2.13
2017-06-16T13:06:26.410Z,2.20
2017-06-16T13:08:53.864Z,2.13
2017-06-16T13:11:21.431Z,1.80
2017-06-16T13:13:48.895Z,1.60
2017-06-16T13:16:16.358Z,2.03
2017-06-16T13:18:44.587Z,1.80
2017-06-16T13:21:12.062Z,1.90
2017-06-16T13:23:39.518Z,2.40
2017-06-16T13:26:06.982Z,2.00
2017-06-16T13:28:34.438Z,1.97
2017-06-16T13:31:01.895Z,1.70
2017-06-16T13:33:29.362Z,2.57
2017-06-16T13:35:56.814Z,2.20
2017-06-16T13:38:24.279Z,2.00
2017-06-16T13:40:51.831Z,2.17
2017-06-16T13:43:19.290Z,2.27
2017-06-16T13:45:46.743Z,2.03
2017-06-16T13:48:14.207Z,1.80
2017-06-16T13:50:41.658Z,1.83
2017-06-16T13:53:09.212Z,2.27
2017-06-16T13:55:36.654Z,1.73
2017-06-16T13:58:04.114Z,1.90
2017-06-16T14:00:31.566Z,2.00
2017-06-16T14:02:59.046Z,1.90
2017-06-16T14:05:26.595Z,2.10
2017-06-16T14:07:54.058Z,2.10
2017-06-16T14:10:21.520Z,2.60
2017-06-16T14:12:48.967Z,2.00
2017-06-16T14:15:16.431Z,1.97
2017-06-16T14:17:43.979Z,1.90
2017-06-16T14:20:11.407Z,1.70
2017-06-16T14:22:38.991Z,2.20
2017-06-16T14:25:06.450Z,2.13
2017-06-16T14:27:33.905Z,1.70
2017-06-16T14:30:01.370Z,2.00
2017-06-16T14:32:28.822Z,1.60
2017-06-16T14:34:56.286Z,1.73
2017-06-16T14:37:24.510Z,2.00
2017-06-16T14:39:51.998Z,1.50
2017-06-16T14:42:19.450Z,1.70
2017-06-16T14:44:46.906Z,1.70
2017-06-16T14:47:14.362Z,1.83
2017-06-16T14:49:41.934Z,2.10
2017-06-16T14:52:09.490Z,2.10
2017-06-16T14:54:36.950Z,1.60
2017-06-16T14:57:04.498Z,1.90
2017-06-16T14:59:31.949Z,1.80
2017-06-16T15:01:59.517Z,1.80
2017-06-16T15:04:27.082Z,1.73
2017-06-16T15:06:54.538Z,1.60
2017-06-16T15:09:22.087Z,1.73
2017-06-16T15:11:49.555Z,1.73
2017-06-16T15:14:17.011Z,1.60
2017-06-16T15:16:44.491Z,2.33
2017-06-16T15:19:12.707Z,1.60
2017-06-16T15:21:40.166Z,2.10
2017-06-16T15:24:07.654Z,1.50
2017-06-16T15:26:35.169Z,1.80
2017-06-16T15:29:02.634Z,2.17
2017-06-16T15:31:30.114Z,1.60
2017-06-16T15:33:57.578Z,1.80
2017-06-16T15:36:25.035Z,1.53
2017-06-16T15:38:52.498Z,1.80
2017-06-16T15:41:20.051Z,1.47
2017-06-16T15:43:47.515Z,2.40
2017-06-16T15:46:14.961Z,1.90
2017-06-16T15:48:42.418Z,1.90
2017-06-16T15:51:09.880Z,1.60
2017-06-16T15:53:37.339Z,1.83
2017-06-16T15:56:04.899Z,1.73
2017-06-16T15:58:32.355Z,2.37
2017-06-16T16:00:59.810Z,1.87
2017-06-16T16:03:27.351Z,1.10
2017-06-16T16:05:54.910Z,1.77
2017-06-16T16:08:22.483Z,1.63
2017-06-16T16:10:50.025Z,1.60
2017-06-16T16:13:17.482Z,1.40
2017-06-16T16:15:44.946Z,1.63
2017-06-16T16:18:12.403Z,1.60
2017-06-16T16:20:39.858Z,1.80
2017-06-16T16:23:07.315Z,1.67
2017-06-16T16:25:34.787Z,2.07
2017-06-16T16:28:03.046Z,1.77
2017-06-16T16:30:30.510Z,1.80
2017-06-16T16:32:57.970Z,2.07
2017-06-16T16:35:26.241Z,1.80
2017-06-16T16:37:53.798Z,1.50
2017-06-16T16:40:21.247Z,2.17
2017-06-16T16:42:48.707Z,1.93
2017-06-16T16:45:16.159Z,1.80
2017-06-16T16:47:43.629Z,1.97
2017-06-16T16:50:11.074Z,1.90
2017-06-16T16:52:38.530Z,2.77
2017-06-16T16:55:05.990Z,2.10
2017-06-16T16:57:33.443Z,1.97
2017-06-16T17:00:00.906Z,2.10
2017-06-16T17:02:28.462Z,2.43
2017-06-16T17:04:55.922Z,3.30
2017-06-16T17:07:23.474Z,2.23
2017-06-16T17:09:50.935Z,2.20
2017-06-16T17:12:18.485Z,1.60
2017-06-16T17:14:46.037Z,1.50
2017-06-16T17:17:13.494Z,2.30
2017-06-16T17:19:41.050Z,2.13
2017-06-16T17:22:08.507Z,1.73
2017-06-16T17:24:35.957Z,2.00
2017-06-16T17:27:03.419Z,1.60
2017-06-16T17:29:30.979Z,1.60
2017-06-16T17:31:58.542Z,1.80
2017-06-16T17:34:25.997Z,1.90
2017-06-16T17:36:53.463Z,2.10
2017-06-16T17:39:21.014Z,1.60
2017-06-16T17:41:48.478Z,2.10
2017-06-16T17:44:15.930Z,1.80
2017-06-16T17:46:43.395Z,2.27
2017-06-16T17:49:10.938Z,1.80
2017-06-16T17:51:38.417Z,2.03
2017-06-16T17:54:06.663Z,2.40
2017-06-16T17:56:34.134Z,1.97
2017-06-16T17:59:01.597Z,2.40
2017-06-16T18:01:29.817Z,2.03
2017-06-16T18:03:57.283Z,1.63
2017-06-16T18:06:24.738Z,1.80
2017-06-16T18:08:52.202Z,1.93
2017-06-16T18:11:19.671Z,2.17
2017-06-16T18:13:47.125Z,1.60
2017-06-16T18:16:14.594Z,2.60
2017-06-16T18:18:42.055Z,1.70
2017-06-16T18:21:09.510Z,1.90
2017-06-16T18:23:37.070Z,2.50
2017-06-16T18:26:04.527Z,2.20
2017-06-16T18:28:32.083Z,2.60
2017-06-16T18:30:59.538Z,1.97
2017-06-16T18:33:26.999Z,2.07
2017-06-16T18:35:54.462Z,2.43
2017-06-16T18:38:22.726Z,1.90
2017-06-16T18:40:50.198Z,1.63
2017-06-16T18:43:18.418Z,1.87
2017-06-16T18:45:45.929Z,1.97
2017-06-16T18:48:14.153Z,1.80
2017-06-16T18:50:41.650Z,2.00
2017-06-16T18:53:09.202Z,2.80
2017-06-16T18:55:36.662Z,1.80
2017-06-16T18:58:04.114Z,1.83
2017-06-16T19:00:31.583Z,2.50
2017-06-16T19:02:59.138Z,2.60
2017-06-16T19:05:26.590Z,2.00
2017-06-16T19:07:54.050Z,2.97
2017-06-16T19:10:21.511Z,2.30
2017-06-16T19:12:48.973Z,2.10
2017-06-16T19:15:17.190Z,2.20
2017-06-16T19:17:44.650Z,1.93
2017-06-16T19:20:12.144Z,2.00
2017-06-16T19:22:40.566Z,2.20
2017-06-16T19:25:08.026Z,1.80
2017-06-16T19:27:35.488Z,2.70
2017-06-16T19:30:02.949Z,2.57
2017-06-16T19:32:30.426Z,2.00
2017-06-16T19:34:57.918Z,2.63
2017-06-16T19:37:25.379Z,2.20
2017-06-16T19:39:53.635Z,1.90
2017-06-16T19:42:21.086Z,2.37
2017-06-16T19:44:48.542Z,1.87
2017-06-16T19:47:15.999Z,2.13
2017-06-16T19:49:43.458Z,2.23
2017-06-16T19:52:10.911Z,2.20
2017-06-16T19:54:38.475Z,2.50
2017-06-16T19:57:06.038Z,1.83
2017-06-16T19:59:33.502Z,2.17
2017-06-16T20:02:00.958Z,2.77
2017-06-16T20:04:28.420Z,3.17
2017-06-16T20:06:56.682Z,1.93
2017-06-16T20:09:24.146Z,2.03
2017-06-16T20:11:51.595Z,2.40
2017-06-16T20:14:19.867Z,2.20
2017-06-16T20:16:47.426Z,2.50
2017-06-16T20:19:14.990Z,1.87
2017-06-16T20:21:42.456Z,3.23
2017-06-16T20:24:10.683Z,2.40
2017-06-16T20:26:38.955Z,2.43
2017-06-16T20:29:06.411Z,2.60
2017-06-16T20:31:33.878Z,2.30
2017-06-16T20:34:01.362Z,2.40
2017-06-16T20:36:28.834Z,2.90
2017-06-16T20:38:57.094Z,2.30
2017-06-16T20:41:24.595Z,2.30
2017-06-16T20:43:52.046Z,2.97
2017-06-16T20:46:19.502Z,2.10
2017-06-16T20:48:46.973Z,2.77
2017-06-16T20:51:14.479Z,2.63
2017-06-16T20:53:41.947Z,2.67
2017-06-16T20:56:10.171Z,2.30
2017-06-16T20:58:37.667Z,2.30
2017-06-16T21:01:05.122Z,2.53
2017-06-16T21:03:32.578Z,2.30
2017-06-16T21:06:00.039Z,2.17
2017-06-16T21:08:27.510Z,2.00
2017-06-16T21:10:55.741Z,1.93
2017-06-16T21:13:23.212Z,2.83
2017-06-16T21:15:50.668Z,2.50
2017-06-16T21:18:18.235Z,2.13
2017-06-16T21:20:45.707Z,3.00
2017-06-16T21:23:13.927Z,2.33
2017-06-16T21:25:41.421Z,2.10
2017-06-16T21:28:08.876Z,2.20
2017-06-16T21:30:36.336Z,2.67
2017-06-16T21:33:03.807Z,2.00
2017-06-16T21:35:32.035Z,3.00
2017-06-16T21:37:59.522Z,2.50
2017-06-16T21:40:27.082Z,2.50
2017-06-16T21:42:54.538Z,3.50
2017-06-16T21:45:22.017Z,2.03
2017-06-16T21:47:49.478Z,2.20
2017-06-16T21:50:16.937Z,1.87
2017-06-16T21:52:44.403Z,2.23
2017-06-16T21:55:11.858Z,2.60
2017-06-16T21:57:39.328Z,2.27
2017-06-16T22:02:37.115Z,2.13
2017-06-16T22:05:04.579Z,2.30
2017-06-16T22:07:32.043Z,1.90
2017-06-16T22:09:59.500Z,2.23
2017-06-16T22:12:26.979Z,2.10
2017-06-16T22:14:54.438Z,2.77
2017-06-16T22:17:21.906Z,3.00
2017-06-16T22:19:50.134Z,2.20
2017-06-16T22:22:17.623Z,2.13
2017-06-16T22:24:45.082Z,2.33
2017-06-16T22:27:12.539Z,2.20
2017-06-16T22:29:40.003Z,2.20
2017-06-16T22:32:07.552Z,2.07
2017-06-16T22:34:35.025Z,2.50
2017-06-16T22:37:03.251Z,2.07
2017-06-16T22:39:30.743Z,3.00
2017-06-16T22:41:58.198Z,2.10
2017-06-16T22:44:25.750Z,2.53
2017-06-16T22:46:53.202Z,2.73
2017-06-16T22:49:20.666Z,2.50
2017-06-16T22:51:48.214Z,2.30
2017-06-16T22:54:15.779Z,2.37
2017-06-16T22:56:43.231Z,2.20
2017-06-16T22:59:10.686Z,2.07
2017-06-16T23:01:38.153Z,1.87
2017-06-16T23:04:05.706Z,2.30
2017-06-16T23:06:33.167Z,2.30
2017-06-16T23:09:00.634Z,2.20
2017-06-16T23:11:28.183Z,2.50
2017-06-16T23:13:55.638Z,2.83
2017-06-16T23:16:23.198Z,1.70
2017-06-16T23:18:50.665Z,1.70
2017-06-16T23:21:18.899Z,2.53
2017-06-16T23:23:46.351Z,2.50
2017-06-16T23:26:13.831Z,2.37
2017-06-16T23:28:41.289Z,2.07
2017-06-16T23:31:08.851Z,1.80
2017-06-16T23:33:36.311Z,2.27
2017-06-16T23:36:03.766Z,2.30
2017-06-16T23:38:31.242Z,2.20
2017-06-16T23:40:59.458Z,1.97
2017-06-16T23:43:26.926Z,1.90
2017-06-16T23:45:54.392Z,1.90
2017-06-16T23:48:21.850Z,1.80
2017-06-16T23:50:49.307Z,2.20
2017-06-16T23:53:16.775Z,2.57
2017-06-16T23:55:44.340Z,1.87
2017-06-16T23:58:11.806Z,1.83
